createdAt,value
2023-04-17T00:00:32.275Z,95.98
2023-04-17T00:03:01.331Z,95.63
2023-04-17T00:05:28.486Z,95.93
2023-04-17T00:07:54.995Z,95.55
2023-04-17T00:10:21.667Z,96.14
2023-04-17T00:12:48.158Z,96.20
2023-04-17T00:15:14.986Z,95.86
2023-04-17T00:17:41.461Z,95.64
2023-04-17T00:20:11.576Z,96.82
2023-04-17T00:22:39.040Z,96.63
2023-04-17T00:25:06.732Z,96.48
2023-04-17T00:27:33.170Z,96.90
2023-04-17T00:29:59.681Z,97.13
2023-04-17T00:32:26.148Z,96.78
2023-04-17T00:34:55.600Z,96.77
2023-04-17T00:37:22.397Z,96.73
2023-04-17T00:39:48.805Z,97.20
2023-04-17T00:42:15.393Z,97.29
2023-04-17T00:44:41.901Z,97.39
2023-04-17T00:47:08.918Z,97.17
2023-04-17T00:49:36.113Z,97.35
2023-04-17T00:52:02.760Z,96.91
2023-04-17T00:54:29.399Z,97.70
2023-04-17T00:56:57.626Z,97.63
2023-04-17T00:59:25.134Z,96.96
2023-04-17T01:01:51.550Z,97.32
2023-04-17T01:04:18.190Z,98.44
2023-04-17T01:06:45.044Z,97.89
2023-04-17T01:09:12.003Z,97.86
2023-04-17T01:11:39.517Z,97.71
2023-04-17T01:14:05.956Z,97.23
2023-04-17T01:16:32.522Z,97.00
2023-04-17T01:18:59.416Z,96.52
2023-04-17T01:21:25.857Z,96.63
2023-04-17T01:23:52.884Z,96.67
2023-04-17T01:26:21.805Z,96.83
2023-04-17T01:28:56.552Z,96.60
2023-04-17T01:31:24.530Z,96.74
2023-04-17T01:33:51.766Z,96.85
2023-04-17T01:36:18.922Z,96.66
2023-04-17T01:38:45.460Z,96.98
2023-04-17T01:41:12.130Z,97.04
2023-04-17T01:43:43.794Z,96.95
2023-04-17T01:46:10.796Z,97.31
2023-04-17T01:48:37.731Z,96.99
2023-04-17T01:51:04.830Z,96.46
2023-04-17T01:53:32.378Z,96.93
2023-04-17T01:56:00.872Z,96.52
2023-04-17T01:58:27.457Z,96.95
2023-04-17T02:00:53.850Z,96.95
2023-04-17T02:03:20.723Z,96.87
2023-04-17T02:05:48.296Z,97.39
2023-04-17T02:08:14.806Z,97.20
2023-04-17T02:10:42.092Z,97.64
2023-04-17T02:13:09.536Z,96.95
2023-04-17T02:15:37.317Z,97.33
2023-04-17T02:18:06.127Z,97.70
2023-04-17T02:20:37.114Z,97.64
2023-04-17T02:23:05.647Z,97.91
2023-04-17T02:25:33.832Z,97.64
2023-04-17T02:28:00.359Z,98.02
2023-04-17T02:30:27.279Z,97.75
2023-04-17T02:32:54.883Z,98.01
2023-04-17T02:35:22.950Z,97.13
2023-04-17T02:37:49.800Z,97.19
2023-04-17T02:40:16.423Z,97.13
2023-04-17T02:42:43.051Z,97.21
2023-04-17T02:45:11.038Z,97.71
2023-04-17T02:47:38.062Z,97.19
2023-04-17T02:50:05.287Z,97.85
2023-04-17T02:52:32.700Z,97.48
2023-04-17T02:54:59.211Z,97.76
2023-04-17T02:57:26.014Z,97.73
2023-04-17T02:59:52.862Z,98.45
2023-04-17T03:02:22.921Z,98.66
2023-04-17T03:04:50.470Z,99.14
2023-04-17T03:07:23.339Z,98.25
2023-04-17T03:09:50.408Z,98.26
2023-04-17T03:12:17.933Z,98.14
2023-04-17T03:14:44.395Z,98.78
2023-04-17T03:17:14.080Z,98.04
2023-04-17T03:19:40.559Z,98.52
2023-04-17T03:22:07.068Z,97.80
2023-04-17T03:24:33.622Z,97.06
2023-04-17T03:27:02.246Z,97.97
2023-04-17T03:29:28.848Z,97.68
2023-04-17T03:31:55.441Z,97.48
2023-04-17T03:34:22.089Z,98.37
2023-04-17T03:36:48.795Z,98.01
2023-04-17T03:39:15.976Z,98.62
2023-04-17T03:41:42.396Z,100.00
2023-04-17T03:44:09.787Z,100.00
2023-04-17T03:46:36.328Z,100.00
2023-04-17T03:49:02.738Z,99.97
2023-04-17T03:51:29.410Z,100.00
2023-04-17T03:53:55.799Z,100.00
2023-04-17T03:56:22.245Z,99.87
2023-04-17T03:58:48.805Z,100.00
2023-04-17T04:01:15.662Z,99.54
2023-04-17T04:03:42.350Z,98.93
2023-04-17T04:06:09.251Z,99.55
2023-04-17T04:08:35.692Z,99.00
2023-04-17T04:11:03.153Z,98.97
2023-04-17T04:13:29.615Z,98.60
2023-04-17T04:15:56.170Z,99.06
2023-04-17T04:18:22.613Z,99.19
2023-04-17T04:20:49.130Z,98.58
2023-04-17T04:23:16.702Z,99.50
2023-04-17T04:25:43.561Z,100.00
2023-04-17T04:28:10.549Z,100.00
2023-04-17T04:30:38.779Z,100.00
2023-04-17T04:33:05.888Z,100.00
2023-04-17T04:35:32.681Z,100.00
2023-04-17T04:38:02.385Z,100.00
2023-04-17T04:40:30.714Z,100.00
2023-04-17T04:42:57.165Z,100.00
2023-04-17T04:45:23.805Z,100.00
2023-04-17T04:47:50.202Z,100.00
2023-04-17T04:50:16.941Z,100.00
2023-04-17T04:52:43.548Z,100.00
2023-04-17T04:55:09.963Z,100.00
2023-04-17T04:57:36.665Z,100.00
2023-04-17T05:00:06.288Z,100.00
2023-04-17T05:02:33.903Z,100.00
2023-04-17T05:05:03.038Z,100.00
2023-04-17T05:07:29.458Z,100.00
2023-04-17T05:09:56.373Z,100.00
2023-04-17T05:12:22.855Z,100.00
2023-04-17T05:14:49.333Z,100.00
2023-04-17T05:17:15.845Z,100.00
2023-04-17T05:19:42.281Z,100.00
2023-04-17T05:22:08.821Z,100.00
2023-04-17T05:24:35.302Z,100.00
2023-04-17T05:27:02.252Z,100.00
2023-04-17T05:29:28.712Z,100.00
2023-04-17T05:31:55.350Z,100.00
2023-04-17T05:34:21.745Z,100.00
2023-04-17T05:36:48.316Z,100.00
2023-04-17T05:39:14.725Z,100.00
2023-04-17T05:41:41.083Z,100.00
2023-04-17T05:44:07.654Z,100.00
2023-04-17T05:46:34.148Z,100.00
2023-04-17T05:49:00.815Z,100.00
2023-04-17T05:51:27.669Z,100.00
2023-04-17T05:53:54.303Z,100.00
2023-04-17T05:56:21.223Z,100.00
2023-04-17T05:58:47.699Z,100.00
2023-04-17T06:01:16.950Z,100.00
2023-04-17T06:03:43.652Z,100.00
2023-04-17T06:06:10.282Z,100.00
2023-04-17T06:08:36.736Z,100.00
2023-04-17T06:11:03.235Z,100.00
2023-04-17T06:13:29.812Z,100.00
2023-04-17T06:15:56.268Z,99.79
2023-04-17T06:18:22.842Z,99.40
2023-04-17T06:20:49.325Z,98.75
2023-04-17T06:23:15.784Z,98.77
2023-04-17T06:25:42.620Z,97.53
2023-04-17T06:28:09.228Z,98.30
2023-04-17T06:30:35.965Z,97.68
2023-04-17T06:33:02.732Z,96.16
2023-04-17T06:35:29.186Z,96.59
2023-04-17T06:37:55.647Z,96.10
2023-04-17T06:40:22.076Z,95.21
2023-04-17T06:42:48.518Z,94.86
2023-04-17T06:45:15.022Z,95.04
2023-04-17T06:47:45.823Z,94.64
2023-04-17T06:50:12.630Z,93.23
2023-04-17T06:52:39.113Z,92.66
2023-04-17T06:55:05.926Z,92.81
2023-04-17T06:57:33.915Z,93.20
2023-04-17T07:00:00.352Z,91.29
2023-04-17T07:02:27.313Z,90.69
2023-04-17T07:04:55.055Z,90.81
2023-04-17T07:07:21.712Z,90.78
2023-04-17T07:09:48.252Z,90.59
2023-04-17T07:12:18.581Z,89.81
2023-04-17T07:14:45.019Z,90.27
2023-04-17T07:17:11.461Z,87.93
2023-04-17T07:19:38.007Z,89.18
2023-04-17T07:22:05.725Z,87.54
2023-04-17T07:24:34.970Z,88.45
2023-04-17T07:27:02.938Z,83.98
2023-04-17T07:29:29.701Z,83.15
2023-04-17T07:31:56.482Z,82.88
2023-04-17T07:34:25.196Z,82.77
2023-04-17T07:36:54.850Z,80.61
2023-04-17T07:39:21.290Z,81.21
2023-04-17T07:41:49.082Z,82.57
2023-04-17T07:44:15.985Z,81.82
2023-04-17T07:46:42.488Z,82.47
2023-04-17T07:49:11.378Z,80.57
2023-04-17T07:51:41.030Z,81.15
2023-04-17T07:54:07.589Z,80.64
2023-04-17T07:56:34.656Z,78.58
2023-04-17T07:59:01.094Z,79.79
2023-04-17T08:01:27.691Z,78.71
2023-04-17T08:03:55.497Z,80.39
2023-04-17T08:06:22.670Z,78.30
2023-04-17T08:08:49.245Z,78.29
2023-04-17T08:11:15.798Z,81.54
2023-04-17T08:13:42.267Z,79.85
2023-04-17T08:16:09.874Z,78.69
2023-04-17T08:18:37.800Z,79.89
2023-04-17T08:21:04.807Z,80.43
2023-04-17T08:23:31.554Z,79.53
2023-04-17T08:25:58.226Z,78.43
2023-04-17T08:28:25.167Z,79.91
2023-04-17T08:30:51.811Z,77.62
2023-04-17T08:33:18.768Z,77.25
2023-04-17T08:35:45.603Z,78.26
2023-04-17T08:38:14.143Z,75.23
2023-04-17T08:40:42.973Z,76.52
2023-04-17T08:43:17.190Z,76.29
2023-04-17T08:45:52.715Z,76.55
2023-04-17T08:48:20.987Z,77.35
2023-04-17T08:50:49.228Z,76.72
2023-04-17T08:53:19.798Z,76.91
2023-04-17T08:55:47.250Z,76.92
2023-04-17T08:58:14.637Z,77.53
2023-04-17T09:00:42.689Z,76.00
2023-04-17T09:03:12.468Z,77.74
2023-04-17T09:05:45.836Z,76.72
2023-04-17T09:08:20.975Z,76.95
2023-04-17T09:10:48.655Z,77.29
2023-04-17T09:13:17.947Z,76.93
2023-04-17T09:15:46.934Z,76.66
2023-04-17T09:18:31.217Z,77.20
2023-04-17T09:20:59.757Z,77.62
2023-04-17T09:23:28.156Z,76.07
2023-04-17T09:26:08.601Z,74.49
2023-04-17T09:28:41.328Z,73.01
2023-04-17T09:31:28.844Z,72.56
2023-04-17T09:34:02.808Z,72.13
2023-04-17T09:36:31.859Z,72.37
2023-04-17T09:39:04.402Z,72.67
2023-04-17T09:41:39.373Z,73.47
2023-04-17T09:44:06.278Z,71.42
2023-04-17T09:46:38.397Z,73.42
2023-04-17T09:49:19.529Z,72.92
2023-04-17T09:51:46.389Z,74.23
2023-04-17T09:54:14.987Z,75.68
2023-04-17T09:56:42.204Z,75.38
2023-04-17T09:59:08.698Z,75.48
2023-04-17T10:01:37.745Z,75.50
2023-04-17T10:04:05.096Z,76.77
2023-04-17T10:06:33.246Z,76.61
2023-04-17T10:08:59.980Z,78.64
2023-04-17T10:11:34.181Z,79.48
2023-04-17T10:14:15.543Z,77.58
2023-04-17T10:16:47.057Z,78.29
2023-04-17T10:19:33.483Z,80.53
2023-04-17T10:22:18.309Z,78.84
2023-04-17T10:24:48.503Z,79.96
2023-04-17T10:27:27.088Z,78.76
2023-04-17T10:29:54.143Z,80.07
2023-04-17T10:32:21.612Z,79.01
2023-04-17T10:34:48.153Z,78.98
2023-04-17T10:37:17.149Z,79.77
2023-04-17T10:39:55.550Z,79.10
2023-04-17T10:42:23.757Z,77.48
2023-04-17T10:44:51.808Z,76.11
2023-04-17T10:47:22.264Z,78.20
2023-04-17T10:49:54.724Z,77.29
2023-04-17T10:52:33.243Z,78.08
2023-04-17T10:55:25.058Z,77.55
2023-04-17T10:58:04.718Z,77.02
2023-04-17T11:00:37.370Z,77.88
2023-04-17T11:03:05.713Z,78.72
2023-04-17T11:05:32.835Z,77.17
2023-04-17T11:07:59.381Z,76.33
2023-04-17T11:10:26.416Z,75.52
2023-04-17T11:12:55.673Z,75.39
2023-04-17T11:15:40.372Z,73.67
2023-04-17T11:18:07.637Z,73.28
2023-04-17T11:20:37.346Z,69.28
2023-04-17T11:23:05.935Z,70.50
2023-04-17T11:25:34.142Z,68.42
2023-04-17T11:28:03.809Z,69.61
2023-04-17T11:30:30.319Z,70.45
2023-04-17T11:33:07.993Z,70.43
2023-04-17T11:35:42.813Z,71.94
2023-04-17T11:38:23.326Z,70.81
2023-04-17T11:40:55.316Z,71.02
2023-04-17T11:43:23.660Z,71.68
2023-04-17T11:45:51.946Z,73.78
2023-04-17T11:48:27.154Z,75.28
2023-04-17T11:51:02.987Z,78.98
2023-04-17T11:53:30.777Z,80.24
2023-04-17T11:56:17.992Z,81.98
2023-04-17T11:58:49.243Z,83.76
2023-04-17T12:01:16.379Z,83.97
2023-04-17T12:03:45.240Z,83.40
2023-04-17T12:06:13.199Z,84.01
2023-04-17T12:08:45.025Z,82.44
2023-04-17T12:11:16.881Z,83.78
2023-04-17T12:13:43.433Z,83.95
2023-04-17T12:16:10.041Z,83.51
2023-04-17T12:18:36.693Z,82.64
2023-04-17T12:21:03.395Z,83.25
2023-04-17T12:23:29.784Z,82.88
2023-04-17T12:25:56.232Z,82.96
2023-04-17T12:28:22.674Z,82.25
2023-04-17T12:30:49.113Z,82.73
2023-04-17T12:33:15.541Z,79.36
2023-04-17T12:35:42.034Z,78.42
2023-04-17T12:38:08.425Z,79.28
2023-04-17T12:40:34.967Z,80.89
2023-04-17T12:43:01.465Z,79.28
2023-04-17T12:45:28.188Z,78.68
2023-04-17T12:47:54.788Z,78.63
2023-04-17T12:50:21.528Z,77.99
2023-04-17T12:52:48.031Z,79.04
2023-04-17T12:55:14.514Z,80.29
2023-04-17T12:57:40.918Z,77.76
2023-04-17T13:00:09.271Z,77.29
2023-04-17T13:02:36.211Z,76.62
2023-04-17T13:05:02.944Z,75.52
2023-04-17T13:07:29.482Z,73.12
2023-04-17T13:09:56.033Z,72.49
2023-04-17T13:12:22.380Z,74.28
2023-04-17T13:14:48.958Z,70.64
2023-04-17T13:17:17.362Z,69.48
2023-04-17T13:19:44.231Z,65.92
2023-04-17T13:22:11.052Z,63.90
2023-04-17T13:24:37.849Z,66.83
2023-04-17T13:27:04.705Z,66.32
2023-04-17T13:29:31.341Z,65.08
2023-04-17T13:31:57.952Z,65.89
2023-04-17T13:34:24.522Z,65.17
2023-04-17T13:36:50.942Z,62.80
2023-04-17T13:39:17.495Z,62.53
2023-04-17T13:41:44.062Z,62.47
2023-04-17T13:44:10.904Z,60.28
2023-04-17T13:46:37.489Z,60.90
2023-04-17T13:49:03.984Z,61.49
2023-04-17T13:51:31.773Z,63.20
2023-04-17T13:54:01.254Z,63.95
2023-04-17T13:56:27.899Z,64.14
2023-04-17T13:58:55.382Z,62.21
2023-04-17T14:01:21.927Z,60.52
2023-04-17T14:03:48.408Z,59.58
2023-04-17T14:06:17.656Z,61.65
2023-04-17T14:08:45.358Z,61.53
2023-04-17T14:11:13.433Z,60.45
2023-04-17T14:13:40.021Z,59.03
2023-04-17T14:16:06.669Z,59.94
2023-04-17T14:18:33.245Z,61.92
2023-04-17T14:20:59.641Z,59.11
2023-04-17T14:23:26.184Z,59.71
2023-04-17T14:25:52.628Z,60.51
2023-04-17T14:28:19.102Z,60.32
2023-04-17T14:30:45.662Z,59.99
2023-04-17T14:33:12.192Z,59.75
2023-04-17T14:35:40.132Z,61.97
2023-04-17T14:38:07.365Z,62.90
2023-04-17T14:40:33.808Z,63.23
2023-04-17T14:43:00.284Z,62.24
2023-04-17T14:45:26.705Z,59.81
2023-04-17T14:47:53.186Z,60.21
2023-04-17T14:50:19.858Z,60.79
2023-04-17T14:52:46.480Z,59.72
2023-04-17T14:55:13.199Z,59.30
2023-04-17T14:57:39.727Z,60.85
2023-04-17T15:00:07.895Z,60.45
2023-04-17T15:02:38.821Z,59.96
2023-04-17T15:05:06.423Z,58.61
2023-04-17T15:07:33.374Z,58.98
2023-04-17T15:09:59.996Z,57.84
2023-04-17T15:12:28.045Z,58.83
2023-04-17T15:14:56.406Z,58.68
2023-04-17T15:17:22.929Z,58.52
2023-04-17T15:19:49.651Z,56.72
2023-04-17T15:22:16.004Z,56.62
2023-04-17T15:24:42.472Z,59.36
2023-04-17T15:27:08.860Z,55.61
2023-04-17T15:29:35.324Z,55.24
2023-04-17T15:32:02.456Z,55.34
2023-04-17T15:34:28.868Z,56.22
2023-04-17T15:36:55.340Z,57.65
2023-04-17T15:39:21.888Z,57.47
2023-04-17T15:41:48.679Z,57.97
2023-04-17T15:44:15.292Z,58.89
2023-04-17T15:46:41.676Z,60.35
2023-04-17T15:49:09.440Z,58.75
2023-04-17T15:51:36.209Z,58.99
2023-04-17T15:54:02.887Z,57.78
2023-04-17T15:56:29.307Z,59.70
2023-04-17T15:58:55.732Z,57.70
2023-04-17T16:01:22.213Z,58.03
2023-04-17T16:03:48.794Z,59.86
2023-04-17T16:06:15.301Z,58.34
2023-04-17T16:08:41.733Z,58.35
2023-04-17T16:11:08.222Z,59.45
2023-04-17T16:13:34.716Z,61.49
2023-04-17T16:16:01.425Z,61.08
2023-04-17T16:18:27.889Z,62.02
2023-04-17T16:20:54.495Z,63.81
2023-04-17T16:23:20.899Z,63.85
2023-04-17T16:25:47.417Z,64.82
2023-04-17T16:28:13.813Z,64.99
2023-04-17T16:30:40.384Z,63.21
2023-04-17T16:33:06.959Z,63.91
2023-04-17T16:35:33.402Z,63.55
2023-04-17T16:38:01.376Z,64.41
2023-04-17T16:40:30.375Z,64.95
2023-04-17T16:42:57.082Z,65.20
2023-04-17T16:45:23.667Z,64.77
2023-04-17T16:47:50.482Z,65.26
2023-04-17T16:50:17.159Z,65.76
2023-04-17T16:52:43.561Z,67.18
2023-04-17T16:55:10.408Z,66.90
2023-04-17T16:57:38.287Z,67.10
2023-04-17T17:00:05.510Z,66.95
2023-04-17T17:02:32.180Z,70.35
2023-04-17T17:04:58.751Z,71.92
2023-04-17T17:07:25.185Z,74.04
2023-04-17T17:09:51.539Z,73.58
2023-04-17T17:12:18.377Z,75.66
2023-04-17T17:14:44.814Z,75.10
2023-04-17T17:17:11.394Z,76.59
2023-04-17T17:19:37.812Z,77.23
2023-04-17T17:22:04.312Z,77.42
2023-04-17T17:24:31.408Z,80.09
2023-04-17T17:26:57.906Z,81.08
2023-04-17T17:29:24.493Z,81.59
2023-04-17T17:31:51.358Z,82.47
2023-04-17T17:36:47.566Z,84.81
2023-04-17T17:39:14.185Z,85.78
2023-04-17T17:41:41.077Z,85.70
2023-04-17T17:44:07.640Z,85.34
2023-04-17T17:46:35.882Z,86.92
2023-04-17T17:49:02.441Z,86.50
2023-04-17T17:51:28.973Z,86.49
2023-04-17T17:53:57.975Z,87.17
2023-04-17T17:56:24.514Z,87.17
2023-04-17T17:58:51.197Z,87.21
2023-04-17T18:01:18.174Z,88.86
2023-04-17T18:03:46.082Z,89.08
2023-04-17T18:06:14.573Z,89.84
2023-04-17T18:08:41.113Z,89.51
2023-04-17T18:11:07.960Z,89.25
2023-04-17T18:13:34.503Z,89.20
2023-04-17T18:16:04.011Z,88.56
2023-04-17T18:18:30.768Z,88.34
2023-04-17T18:20:57.320Z,89.14
2023-04-17T18:23:24.855Z,88.95
2023-04-17T18:25:58.695Z,89.42
2023-04-17T18:28:25.892Z,89.02
2023-04-17T18:30:52.459Z,88.29
2023-04-17T18:33:19.243Z,89.77
2023-04-17T18:35:45.820Z,89.53
2023-04-17T18:38:12.417Z,89.22
2023-04-17T18:40:38.899Z,88.94
2023-04-17T18:43:06.079Z,88.68
2023-04-17T18:45:32.792Z,89.44
2023-04-17T18:47:59.342Z,89.51
2023-04-17T18:50:26.919Z,89.29
2023-04-17T18:52:53.506Z,89.50
2023-04-17T18:55:20.051Z,89.72
2023-04-17T18:57:46.687Z,89.98
2023-04-17T19:00:13.452Z,90.65
2023-04-17T19:02:40.730Z,90.12
2023-04-17T19:05:07.923Z,90.79
2023-04-17T19:07:34.380Z,90.27
2023-04-17T19:10:00.974Z,91.18
2023-04-17T19:12:27.738Z,91.49
2023-04-17T19:14:57.192Z,91.04
2023-04-17T19:17:25.383Z,91.35
2023-04-17T19:19:52.074Z,91.58
2023-04-17T19:22:18.661Z,91.39
2023-04-17T19:24:49.503Z,91.98
2023-04-17T19:27:17.162Z,91.25
2023-04-17T19:29:43.705Z,91.59
2023-04-17T19:32:11.166Z,90.91
2023-04-17T19:34:38.236Z,91.71
2023-04-17T19:37:05.403Z,91.97
2023-04-17T19:39:32.130Z,90.86
2023-04-17T19:41:58.767Z,90.99
2023-04-17T19:44:27.772Z,91.47
2023-04-17T19:46:55.319Z,91.03
2023-04-17T19:49:22.022Z,91.38
2023-04-17T19:51:48.606Z,91.53
2023-04-17T19:54:15.892Z,91.59
2023-04-17T19:56:42.525Z,91.82
2023-04-17T19:59:12.544Z,91.91
2023-04-17T20:01:42.144Z,92.07
2023-04-17T20:04:10.090Z,92.24
2023-04-17T20:06:36.661Z,92.34
2023-04-17T20:09:04.617Z,92.01
2023-04-17T20:11:31.115Z,92.27
2023-04-17T20:13:57.611Z,92.27
2023-04-17T20:16:24.406Z,92.13
2023-04-17T20:18:52.043Z,91.81
2023-04-17T20:21:18.920Z,92.00
2023-04-17T20:23:46.876Z,91.79
2023-04-17T20:26:14.044Z,91.88
2023-04-17T20:28:40.762Z,92.66
2023-04-17T20:31:07.996Z,92.84
2023-04-17T20:33:34.564Z,93.14
2023-04-17T20:36:01.979Z,92.41
2023-04-17T20:38:28.630Z,93.06
2023-04-17T20:40:55.223Z,93.53
2023-04-17T20:43:21.708Z,93.29
2023-04-17T20:45:49.309Z,93.68
2023-04-17T20:48:16.405Z,93.59
2023-04-17T20:50:43.115Z,93.22
2023-04-17T20:53:09.717Z,93.50
2023-04-17T20:55:37.845Z,93.54
2023-04-17T20:58:04.376Z,93.27
2023-04-17T21:00:30.823Z,93.84
2023-04-17T21:02:57.387Z,93.79
2023-04-17T21:05:24.030Z,92.93
2023-04-17T21:07:51.742Z,92.67
2023-04-17T21:10:19.804Z,92.41
2023-04-17T21:12:47.030Z,91.97
2023-04-17T21:15:13.610Z,92.19
2023-04-17T21:17:40.319Z,91.97
2023-04-17T21:20:07.598Z,92.43
2023-04-17T21:22:34.021Z,92.76
2023-04-17T21:25:02.900Z,92.33
2023-04-17T21:27:29.354Z,92.35
2023-04-17T21:29:55.880Z,92.44
2023-04-17T21:32:22.421Z,92.93
2023-04-17T21:34:48.998Z,92.96
2023-04-17T21:37:15.516Z,92.40
2023-04-17T21:39:42.154Z,92.08
2023-04-17T21:42:09.713Z,91.99
2023-04-17T21:44:36.114Z,91.71
2023-04-17T21:47:02.589Z,91.43
2023-04-17T21:49:29.064Z,91.28
2023-04-17T21:51:56.908Z,91.70
2023-04-17T21:54:25.284Z,90.90
2023-04-17T21:56:51.815Z,91.37
2023-04-17T21:59:18.276Z,91.05
2023-04-17T22:01:44.736Z,91.19
2023-04-17T22:04:11.429Z,91.58
2023-04-17T22:06:38.008Z,90.69
2023-04-17T22:09:04.972Z,91.00
2023-04-17T22:11:31.398Z,90.86
2023-04-17T22:13:57.855Z,90.32
2023-04-17T22:16:24.580Z,89.92
2023-04-17T22:18:50.974Z,90.69
2023-04-17T22:21:17.521Z,89.94
2023-04-17T22:23:43.991Z,90.97
2023-04-17T22:26:10.637Z,90.67
2023-04-17T22:28:37.109Z,90.50
2023-04-17T22:31:03.652Z,90.90
2023-04-17T22:33:30.281Z,90.82
2023-04-17T22:35:56.937Z,90.66
2023-04-17T22:38:23.445Z,90.39
2023-04-17T22:40:50.061Z,89.74
2023-04-17T22:43:16.525Z,90.44
2023-04-17T22:45:43.505Z,90.25
2023-04-17T22:48:10.145Z,90.68
2023-04-17T22:50:37.858Z,90.45
2023-04-17T22:53:04.876Z,91.39
2023-04-17T22:55:31.318Z,91.07
2023-04-17T22:57:57.808Z,91.03
2023-04-17T23:00:25.235Z,91.48
2023-04-17T23:02:51.739Z,91.78
2023-04-17T23:05:18.479Z,91.24
2023-04-17T23:07:45.151Z,91.34
2023-04-17T23:10:11.681Z,90.94
2023-04-17T23:12:38.327Z,91.35
2023-04-17T23:15:05.581Z,90.86
2023-04-17T23:17:32.356Z,90.90
2023-04-17T23:19:58.876Z,91.40
2023-04-17T23:22:25.568Z,91.06
2023-04-17T23:24:51.951Z,91.36
2023-04-17T23:27:18.505Z,90.97
2023-04-17T23:29:44.998Z,91.32
2023-04-17T23:32:11.590Z,91.48
2023-04-17T23:34:38.317Z,92.04
2023-04-17T23:37:05.375Z,91.32
2023-04-17T23:39:31.910Z,92.17
2023-04-17T23:42:00.609Z,91.54
2023-04-17T23:44:27.266Z,91.92
2023-04-17T23:46:54.903Z,92.25
2023-04-17T23:49:21.365Z,92.44
2023-04-17T23:51:47.911Z,92.44
2023-04-17T23:54:15.201Z,92.22
2023-04-17T23:56:43.586Z,92.30
2023-04-17T23:59:10.193Z,91.92
